Time;durP1;ratioP1;P1;durP2;ratioP2;P2;SDS_P1;SDS_P2;PMS_P1;PMS_P2;Temp;Humidity;BMP_temperature;BMP_pressure;BME280_temperature;BME280_humidity;BME280_pressure;Samples;Min_cycle;Max_cycle;Signal;HPM_P1;HPM_P2
2022/04/22 00:00:37;;;;;;;3.13;2.93;;;12.70;54.20;12.90;95203.00;;;;5056366;28;20212;-86
2022/04/22 00:03:07;;;;;;;3.43;3.13;;;12.70;54.20;12.80;95196.00;;;;5057347;28;20240;-86
2022/04/22 00:05:34;;;;;;;3.23;3.03;;;12.70;54.50;12.80;95198.00;;;;5055909;28;20258;-86
2022/04/22 00:08:01;;;;;;;2.97;2.77;;;12.70;54.50;12.80;95198.00;;;;5055561;28;20197;-86
2022/04/22 00:10:29;;;;;;;3.50;3.20;;;12.70;54.50;12.80;95198.00;;;;5036275;28;20197;-86
2022/04/22 00:12:56;;;;;;;3.13;2.93;;;12.60;54.50;12.70;95203.00;;;;5035637;28;20308;-86
2022/04/22 00:15:23;;;;;;;3.13;2.93;;;12.70;54.60;12.70;95192.00;;;;5053250;28;20232;-86
2022/04/22 00:17:50;;;;;;;2.93;2.73;;;12.60;54.50;12.70;95182.00;;;;5055708;28;20204;-86
2022/04/22 00:20:19;;;;;;;2.60;2.50;;;12.60;54.70;12.70;95176.00;;;;5037867;28;20200;-86
2022/04/22 00:22:46;;;;;;;2.80;2.60;;;12.60;54.70;12.70;95176.00;;;;5035495;28;20700;-86
2022/04/22 00:25:14;;;;;;;3.43;3.23;;;12.60;54.70;12.70;95180.00;;;;5037380;28;20598;-85
2022/04/22 00:27:42;;;;;;;3.47;3.17;;;12.50;54.70;12.70;95170.00;;;;5035211;28;20190;-86
2022/04/22 00:30:12;;;;;;;3.80;3.50;;;12.50;54.80;12.70;95174.00;;;;5050695;28;20200;-86
2022/04/22 00:32:40;;;;;;;3.20;3.00;;;12.50;54.90;12.70;95170.00;;;;5054881;28;20219;-86
2022/04/22 00:35:08;;;;;;;3.83;3.53;;;12.50;54.90;12.60;95166.00;;;;5054396;28;20243;-86
2022/04/22 00:37:37;;;;;;;3.40;3.20;;;12.50;55.00;12.60;95164.00;;;;5054138;28;20201;-86
2022/04/22 00:40:06;;;;;;;3.20;3.00;;;12.50;55.00;12.60;95158.00;;;;5054471;28;20192;-86
2022/04/22 00:42:33;;;;;;;3.93;3.63;;;12.40;55.00;12.60;95156.00;;;;5053606;28;20713;-86
2022/04/22 00:45:00;;;;;;;3.87;3.57;;;12.40;55.10;12.50;95155.00;;;;5052675;28;20211;-86
2022/04/22 00:47:27;;;;;;;3.70;3.40;;;12.40;55.20;12.50;95154.00;;;;5054376;28;20470;-86
2022/04/22 00:49:55;;;;;;;3.70;3.40;;;12.40;55.20;12.50;95146.00;;;;5037789;28;20207;-86
2022/04/22 00:52:22;;;;;;;3.23;3.03;;;12.40;55.30;12.50;95144.00;;;;5034423;28;20232;-86
2022/04/22 00:54:51;;;;;;;3.90;3.60;;;12.40;55.50;12.50;95143.00;;;;5048125;28;20303;-86
2022/04/22 00:57:20;;;;;;;4.00;3.70;;;12.30;55.40;12.50;95133.00;;;;5053889;28;20188;-87
2022/04/22 00:59:47;;;;;;;3.80;3.50;;;12.30;55.40;12.50;95136.00;;;;5053488;28;20193;-86
2022/04/22 01:02:15;;;;;;;4.07;3.67;;;12.30;55.60;12.50;95129.00;;;;5052483;28;20220;-86
2022/04/22 01:10:13;;;;;;;3.87;3.57;;;12.30;55.60;12.30;95122.00;;;;5052315;28;20203;-86
2022/04/22 01:12:41;;;;;;;4.07;3.77;;;12.20;55.60;12.30;95121.00;;;;5053461;28;20230;-86
2022/04/22 01:15:09;;;;;;;4.40;4.10;;;12.20;55.70;12.30;95115.00;;;;5037667;28;20221;-86
2022/04/22 01:17:37;;;;;;;4.37;3.90;;;12.20;55.80;12.20;95102.00;;;;5033195;28;20641;-87
2022/04/22 01:20:06;;;;;;;4.77;4.00;;;12.10;55.80;12.20;95107.00;;;;5034737;28;20204;-86
2022/04/22 01:22:35;;;;;;;4.30;3.90;;;12.20;55.90;12.20;95112.00;;;;5033599;28;20221;-86
2022/04/22 01:25:04;;;;;;;4.10;3.80;;;12.10;55.90;12.20;95099.00;;;;5047873;28;20572;-86
2022/04/22 01:27:32;;;;;;;4.97;4.53;;;12.10;56.10;12.20;95093.00;;;;5052682;28;20661;-86
2022/04/22 01:30:02;;;;;;;4.60;4.20;;;12.10;56.30;12.10;95089.00;;;;5052789;28;20232;-86
2022/04/22 01:32:30;;;;;;;4.33;3.93;;;12.10;56.30;12.10;95091.00;;;;5053511;28;20216;-86
2022/04/22 01:34:57;;;;;;;4.87;4.37;;;12.00;56.30;12.00;95093.00;;;;5036770;28;20223;-86
2022/04/22 01:37:24;;;;;;;5.03;4.57;;;12.00;56.20;12.00;95095.00;;;;5032719;28;20219;-86
2022/04/22 01:39:53;;;;;;;6.40;4.37;;;12.00;56.50;12.00;95086.00;;;;5048230;28;20677;-85
2022/04/22 01:42:20;;;;;;;4.90;4.50;;;12.00;56.50;12.00;95087.00;;;;5053433;28;20224;-86
2022/04/22 01:44:49;;;;;;;4.73;4.33;;;12.00;56.50;12.00;95081.00;;;;5052087;28;20283;-86
2022/04/22 01:47:17;;;;;;;5.43;4.93;;;11.90;56.60;12.00;95078.00;;;;5053012;28;20192;-86
2022/04/22 01:49:44;;;;;;;4.90;4.50;;;11.90;56.70;11.90;95069.00;;;;5039497;28;20199;-86
2022/04/22 01:52:11;;;;;;;5.20;4.80;;;11.90;56.80;11.90;95068.00;;;;5039163;28;20212;-86
2022/04/22 01:54:38;;;;;;;5.57;5.10;;;11.80;56.60;11.90;95072.00;;;;5052436;28;20220;-86
2022/04/22 01:57:06;;;;;;;5.43;4.87;;;11.80;56.70;11.90;95060.00;;;;5053172;28;20195;-86
2022/04/22 01:59:33;;;;;;;6.87;5.13;;;11.80;56.90;11.90;95066.00;;;;5052316;28;20205;-86
2022/04/22 02:02:01;;;;;;;5.27;4.87;;;11.80;56.80;11.90;95061.00;;;;5052372;28;20702;-86
2022/04/22 02:04:28;;;;;;;5.53;5.03;;;11.80;56.90;11.80;95059.00;;;;5041047;28;20223;-86
2022/04/22 02:06:55;;;;;;;5.53;5.03;;;11.70;57.00;11.80;95051.00;;;;5033196;28;20201;-86
2022/04/22 02:09:22;;;;;;;5.87;5.27;;;11.70;57.00;11.80;95050.00;;;;5047615;28;20211;-86
2022/04/22 02:11:49;;;;;;;5.40;4.93;;;11.70;57.20;11.80;95053.00;;;;5052444;28;20216;-86
2022/04/22 02:14:17;;;;;;;5.67;5.07;;;11.70;57.20;11.80;95055.00;;;;5052363;28;20526;-86
2022/04/22 02:16:44;;;;;;;5.33;4.93;;;11.70;57.50;11.70;95049.00;;;;5052666;28;20568;-86
2022/04/22 02:19:11;;;;;;;5.53;5.03;;;11.60;57.40;11.70;95047.00;;;;5044381;28;20205;-86
2022/04/22 02:21:38;;;;;;;5.70;5.20;;;11.60;57.50;11.70;95041.00;;;;5032554;28;20197;-86
2022/04/22 02:24:06;;;;;;;5.43;5.03;;;11.60;57.60;11.70;95048.00;;;;5039528;28;20584;-86
2022/04/22 02:28:31;;;;;;;5.60;5.10;;;11.60;57.70;11.60;95042.00;;;;5050891;28;20672;-86
2022/04/22 02:29:22;;;;;;;5.67;5.27;;;11.60;57.60;11.60;95043.00;;;;5056900;28;20282;-86
2022/04/22 02:31:52;;;;;;;5.70;5.20;;;11.50;57.60;11.60;95043.00;;;;5056250;28;20820;-86
2022/04/22 02:34:20;;;;;;;5.80;5.20;;;11.50;57.70;11.60;95042.00;;;;5044067;28;20221;-86
2022/04/22 02:36:47;;;;;;;5.63;5.13;;;11.50;57.90;11.60;95038.00;;;;5034341;28;20201;-86
2022/04/22 02:39:14;;;;;;;6.20;5.63;;;11.50;58.00;11.60;95032.00;;;;5043794;28;20204;-86
2022/04/22 02:47:13;;;;;;;5.87;5.37;;;11.40;58.10;11.50;95025.00;;;;5032928;28;20617;-86
2022/04/22 02:49:43;;;;;;;6.10;5.50;;;11.40;58.60;11.50;95027.00;;;;5032609;28;20212;-86
2022/04/22 02:52:10;;;;;;;5.73;5.23;;;11.40;58.20;11.50;95031.00;;;;5033083;28;20305;-86
2022/04/22 02:54:37;;;;;;;6.00;5.40;;;11.40;58.30;11.50;95026.00;;;;5044893;28;20228;-86
2022/04/22 02:57:05;;;;;;;8.07;6.40;;;11.30;58.30;11.40;95026.00;;;;5051834;28;20562;-86
2022/04/22 02:59:35;;;;;;;6.10;5.60;;;11.30;58.40;11.40;95026.00;;;;5039771;28;20197;-86
2022/04/22 03:02:03;;;;;;;6.37;5.77;;;11.30;58.50;11.40;95024.00;;;;5032369;28;20228;-86
2022/04/22 03:04:30;;;;;;;6.03;5.53;;;11.30;58.50;11.40;95018.00;;;;5042324;28;20553;-86
2022/04/22 03:06:57;;;;;;;6.50;6.00;;;11.30;58.50;11.40;95019.00;;;;5046995;28;20197;-86
2022/04/22 03:09:25;;;;;;;7.50;6.70;;;11.30;58.60;11.30;95015.00;;;;5033657;28;20204;-86
2022/04/22 03:11:52;;;;;;;6.67;6.07;;;11.20;58.60;11.30;95010.00;;;;5037722;28;20301;-86
2022/04/22 03:14:19;;;;;;;6.40;5.80;;;11.20;58.70;11.30;95008.00;;;;5050749;28;20589;-86
2022/04/22 03:16:48;;;;;;;7.40;5.97;;;11.20;58.80;11.30;94995.00;;;;5051651;28;20665;-87
2022/04/22 03:19:15;;;;;;;8.03;6.20;;;11.20;58.90;11.30;95003.00;;;;5049305;28;20192;-86
2022/04/22 03:21:42;;;;;;;6.77;6.13;;;11.10;58.80;11.20;95000.00;;;;5051889;28;20580;-87
2022/04/22 03:24:11;;;;;;;6.80;6.20;;;11.10;58.70;11.20;94995.00;;;;5048875;28;20196;-87
2022/04/22 03:26:38;;;;;;;6.73;6.10;;;11.10;58.90;11.20;94994.00;;;;5051744;28;20775;-87
2022/04/22 03:29:05;;;;;;;7.10;6.40;;;11.10;59.10;11.20;95000.00;;;;5051152;28;20220;-87
2022/04/22 03:31:32;;;;;;;7.43;6.73;;;11.10;59.10;11.10;94995.00;;;;5051703;28;20196;-87
2022/04/22 03:34:01;;;;;;;7.17;6.47;;;11.00;59.20;11.10;94995.00;;;;5043296;28;20190;-87
2022/04/22 03:36:28;;;;;;;7.43;6.73;;;11.00;59.40;11.10;94995.00;;;;5031494;28;20207;-87
2022/04/22 03:38:55;;;;;;;7.43;6.70;;;11.00;59.40;11.10;94990.00;;;;5039815;28;20196;-87
2022/04/22 03:41:21;;;;;;;7.07;6.33;;;11.00;59.40;11.00;94990.00;;;;5051497;28;20192;-87
2022/04/22 03:43:49;;;;;;;7.77;6.97;;;10.90;59.30;11.00;94987.00;;;;5049618;28;20221;-87
2022/04/22 03:46:16;;;;;;;7.67;6.93;;;10.90;59.50;11.00;94987.00;;;;5051359;28;20201;-87
2022/04/22 03:48:43;;;;;;;8.27;7.33;;;10.90;59.60;11.00;94986.00;;;;5038639;28;20204;-87
2022/04/22 03:51:11;;;;;;;8.00;7.20;;;10.90;59.70;11.00;94985.00;;;;5031675;28;20284;-87
2022/04/22 03:53:40;;;;;;;7.80;7.00;;;10.90;59.70;11.00;94983.00;;;;5043144;28;20225;-87
2022/04/22 03:58:48;;;;;;;7.47;6.67;;;10.90;59.70;11.00;94970.00;;;;5046809;28;20193;-86
2022/04/22 04:01:15;;;;;;;7.60;6.80;;;10.90;59.70;11.00;94963.00;;;;5047977;28;20215;-87
2022/04/22 04:03:43;;;;;;;8.20;7.37;;;10.90;59.80;10.90;94963.00;;;;5052693;28;20499;-87
2022/04/22 04:06:12;;;;;;;7.77;7.00;;;10.80;59.80;10.90;94963.00;;;;5047894;28;20655;-87
2022/04/22 04:08:39;;;;;;;8.10;7.07;;;10.80;59.90;10.90;94951.00;;;;5053272;28;20197;-87
2022/04/22 04:16:36;;;;;;;8.10;7.30;;;10.80;60.00;10.90;94950.00;;;;5054327;28;20307;-87
2022/04/22 04:24:39;;;;;;;9.13;7.27;;;10.80;60.00;10.90;94956.00;;;;5051099;28;20286;-82
2022/04/22 04:27:07;;;;;;;9.23;7.73;;;10.70;59.90;10.90;94946.00;;;;5059070;28;20676;-83
2022/04/22 04:29:35;;;;;;;8.80;7.93;;;10.80;60.20;10.90;94941.00;;;;5059969;28;20690;-82
2022/04/22 04:32:02;;;;;;;8.37;7.57;;;10.80;60.20;10.90;94949.00;;;;5058833;28;20586;-85
2022/04/22 04:34:29;;;;;;;8.50;7.70;;;10.70;60.30;11.00;94949.00;;;;5058862;28;20224;-82
2022/04/22 04:36:57;;;;;;;9.00;8.10;;;10.80;60.60;11.00;94940.00;;;;5059346;28;20200;-83
2022/04/22 04:39:24;;;;;;;7.97;6.93;;;10.80;60.60;11.00;94945.00;;;;5057888;28;20597;-83
2022/04/22 04:41:51;;;;;;;8.80;7.90;;;10.80;60.40;11.00;94950.00;;;;5058923;28;20717;-82
2022/04/22 04:44:19;;;;;;;8.53;7.73;;;10.80;60.60;11.00;94956.00;;;;5056913;28;20224;-83
2022/04/22 04:46:46;;;;;;;8.37;7.57;;;10.80;60.70;11.00;94964.00;;;;5057032;28;20228;-82
2022/04/22 04:49:13;;;;;;;9.17;8.10;;;10.80;60.60;11.10;94964.00;;;;5055385;28;20189;-82
2022/04/22 04:51:40;;;;;;;8.27;7.47;;;10.80;60.80;11.10;94960.00;;;;5058959;28;20215;-84
2022/04/22 04:54:08;;;;;;;9.57;8.23;;;10.90;60.80;11.10;94964.00;;;;5052155;28;20287;-82
2022/04/22 04:56:35;;;;;;;9.03;8.13;;;10.90;61.00;11.20;94965.00;;;;5057909;28;20228;-82
2022/04/22 04:59:02;;;;;;;9.87;7.87;;;10.90;61.00;11.20;94968.00;;;;5062345;28;20569;-82
2022/04/22 05:01:29;;;;;;;9.57;8.67;;;10.90;61.10;11.30;94968.00;;;;5060988;28;20193;-81
2022/04/22 05:03:56;;;;;;;8.07;7.27;;;11.00;61.30;11.30;94965.00;;;;5060662;28;20717;-82
2022/04/22 05:06:23;;;;;;;8.50;7.57;;;11.00;61.20;11.30;94961.00;;;;5062461;28;20197;-82
2022/04/22 05:08:50;;;;;;;9.80;8.30;;;11.00;61.10;11.40;94973.00;;;;5053660;28;20201;-83
2022/04/22 05:11:19;;;;;;;8.87;7.97;;;11.10;61.30;11.40;94970.00;;;;5041504;28;20201;-82
2022/04/22 05:13:46;;;;;;;8.33;7.53;;;11.10;61.10;11.50;94962.00;;;;5041142;28;20235;-82
2022/04/22 05:16:13;;;;;;;9.10;8.17;;;11.10;61.10;11.50;94967.00;;;;5057301;28;20212;-82
2022/04/22 05:18:40;;;;;;;10.67;7.77;;;11.20;61.10;11.60;94966.00;;;;5052758;28;20189;-82
2022/04/22 05:21:07;;;;;;;9.17;8.17;;;11.20;61.30;11.60;94968.00;;;;5050767;28;20197;-82
2022/04/22 05:23:34;;;;;;;8.33;7.50;;;11.30;61.40;11.70;94973.00;;;;5061199;28;20209;-82
2022/04/22 05:26:03;;;;;;;9.07;7.93;;;11.30;61.30;11.80;94966.00;;;;5065610;28;20729;-82
2022/04/22 05:28:32;;;;;;;9.20;8.30;;;11.40;61.40;11.80;94972.00;;;;5067964;28;20185;-82
2022/04/22 05:33:44;;;;;;;7.97;7.17;;;11.50;61.30;11.90;94961.00;;;;5045235;28;20263;-82
2022/04/22 05:36:11;;;;;;;10.20;7.83;;;11.50;61.10;12.00;94970.00;;;;5043717;28;20228;-82
2022/04/22 05:38:38;;;;;;;7.80;7.10;;;11.60;61.20;12.00;94965.00;;;;5043935;28;20204;-82
2022/04/22 05:41:05;;;;;;;8.97;7.57;;;11.60;61.10;12.10;94966.00;;;;5043230;28;20205;-83
2022/04/22 05:43:34;;;;;;;7.93;7.13;;;11.70;61.40;12.10;94969.00;;;;5042824;28;20245;-81
2022/04/22 05:46:01;;;;;;;8.67;7.77;;;11.70;61.20;12.20;94969.00;;;;5043029;28;20208;-82
2022/04/22 05:48:28;;;;;;;7.60;6.90;;;11.80;61.10;12.30;94966.00;;;;5046220;28;20201;-82
2022/04/22 05:50:55;;;;;;;7.70;6.57;;;11.90;61.30;12.30;94969.00;;;;5062445;28;20201;-81
2022/04/22 05:53:22;;;;;;;8.27;7.47;;;11.90;61.10;12.40;94970.00;;;;5060999;28;20223;-82
2022/04/22 05:55:49;;;;;;;8.17;7.37;;;12.00;61.10;12.50;94976.00;;;;5047998;28;20220;-81
2022/04/22 05:58:17;;;;;;;8.00;7.20;;;12.00;60.90;12.60;94978.00;;;;5042513;28;20197;-82
2022/04/22 06:00:45;;;;;;;8.03;7.17;;;12.10;61.00;12.60;94967.00;;;;5045359;28;20213;-84
2022/04/22 06:03:12;;;;;;;7.90;6.83;;;12.10;60.90;12.60;94959.00;;;;5042298;28;20228;-81
2022/04/22 06:05:39;;;;;;;7.27;6.57;;;12.20;60.70;12.70;94948.00;;;;5042449;28;20228;-82
2022/04/22 06:10:54;;;;;;;7.53;6.83;;;12.30;60.50;12.80;94969.00;;;;5041616;28;20204;-82
2022/04/22 06:13:21;;;;;;;7.20;6.50;;;12.40;60.40;12.80;94965.00;;;;5041379;28;20766;-81
2022/04/22 06:15:49;;;;;;;7.30;6.60;;;12.40;60.30;12.90;94959.00;;;;5040051;28;20217;-81
2022/04/22 06:18:16;;;;;;;7.70;6.97;;;12.50;60.30;12.90;94963.00;;;;5057917;28;20205;-84
2022/04/22 06:20:43;;;;;;;7.07;6.40;;;12.50;60.10;13.00;94964.00;;;;5053669;28;20193;-81
2022/04/22 06:23:10;;;;;;;7.27;6.57;;;12.60;60.40;13.00;94959.00;;;;5058728;28;20213;-81
2022/04/22 06:25:37;;;;;;;7.33;6.63;;;12.60;60.00;13.10;94961.00;;;;5057824;28;20203;-82
2022/04/22 06:28:06;;;;;;;6.93;6.33;;;12.70;60.00;13.10;94966.00;;;;5057983;28;20591;-82
2022/04/22 06:30:33;;;;;;;6.63;6.03;;;12.70;59.90;13.20;94967.00;;;;5043381;28;20407;-82
2022/04/22 06:33:03;;;;;;;7.20;6.50;;;12.80;60.00;13.30;94966.00;;;;5037806;28;20214;-82
2022/04/22 06:35:31;;;;;;;7.30;6.60;;;12.80;59.90;13.40;94965.00;;;;5051769;28;20578;-82
2022/04/22 06:38:00;;;;;;;7.40;6.70;;;12.90;59.90;13.40;94968.00;;;;5039209;28;20203;-81
2022/04/22 06:45:59;;;;;;;6.43;5.83;;;13.10;59.60;13.70;94970.00;;;;5041023;28;20316;-82
2022/04/22 06:48:30;;;;;;;6.90;6.20;;;13.20;59.50;13.80;94960.00;;;;5037074;28;20212;-82
2022/04/22 06:50:59;;;;;;;6.50;5.90;;;13.30;59.50;13.90;94971.00;;;;5051226;28;20208;-83
2022/04/22 06:53:27;;;;;;;6.83;6.23;;;13.40;59.40;14.00;94963.00;;;;5055845;28;20213;-82
2022/04/22 06:55:59;;;;;;;6.67;6.10;;;13.40;59.30;14.10;94964.00;;;;5040385;28;20221;-81
2022/04/22 06:58:27;;;;;;;6.60;6.00;;;13.50;59.20;14.20;94958.00;;;;5035912;28;20221;-82
2022/04/22 07:00:54;;;;;;;6.83;6.00;;;13.60;59.20;14.30;94957.00;;;;5048283;28;20287;-82
2022/04/22 07:03:22;;;;;;;6.90;6.20;;;13.70;59.00;14.40;94962.00;;;;5055547;28;20591;-83
2022/04/22 07:05:52;;;;;;;6.77;6.07;;;13.80;58.90;14.50;94962.00;;;;5040055;28;20197;-82
2022/04/22 07:08:20;;;;;;;6.87;6.23;;;13.90;58.80;14.60;94963.00;;;;5052166;28;20204;-82
2022/04/22 07:10:49;;;;;;;6.77;6.17;;;14.00;58.80;14.70;94958.00;;;;5053486;28;20215;-82
2022/04/22 07:13:18;;;;;;;6.73;6.13;;;14.10;58.70;14.90;94958.00;;;;5052667;28;20600;-82
2022/04/22 07:15:47;;;;;;;6.53;5.93;;;14.20;58.70;15.00;94962.00;;;;5053225;28;20685;-82
2022/04/22 07:18:17;;;;;;;6.77;6.07;;;14.30;58.50;15.10;94959.00;;;;5038212;28;20247;-82
2022/04/22 07:20:45;;;;;;;6.30;5.63;;;14.50;58.40;15.30;94961.00;;;;5034445;28;20193;-85
2022/04/22 07:23:15;;;;;;;5.97;5.47;;;14.60;58.30;15.40;94957.00;;;;5035056;28;20303;-82
2022/04/22 07:25:46;;;;;;;6.17;5.67;;;14.70;58.10;15.60;94965.00;;;;5034155;28;20193;-82
2022/04/22 07:28:14;;;;;;;5.17;4.73;;;14.80;58.00;15.80;94957.00;;;;5049781;28;20231;-82
2022/04/22 07:30:46;;;;;;;5.80;5.30;;;15.00;57.90;15.90;94958.00;;;;5053064;28;20204;-82
2022/04/22 07:33:14;;;;;;;6.13;5.53;;;15.10;57.60;16.10;94962.00;;;;5054059;28;20720;-82
2022/04/22 07:35:42;;;;;;;5.37;4.93;;;15.30;57.30;16.20;94961.00;;;;5046983;28;20251;-81
2022/04/22 07:38:11;;;;;;;6.13;5.63;;;15.40;57.00;16.40;94951.00;;;;5066957;28;20195;-83
2022/04/22 07:40:43;;;;;;;6.13;5.63;;;15.50;56.50;16.50;94961.00;;;;5052719;28;20200;-81
2022/04/22 07:48:43;;;;;;;5.47;4.97;;;15.90;56.30;17.00;94950.00;;;;5065022;28;20195;-83
2022/04/22 07:51:11;;;;;;;5.70;5.20;;;16.10;56.20;17.10;94952.00;;;;5066166;28;20200;-82
2022/04/22 07:53:38;;;;;;;6.00;5.40;;;16.20;56.00;17.20;94954.00;;;;5064590;28;20216;-82
2022/04/22 07:56:07;;;;;;;5.70;5.20;;;16.30;56.40;17.40;94963.00;;;;5065231;28;20221;-83
2022/04/22 07:58:34;;;;;;;5.87;5.20;;;16.40;55.50;17.50;94958.00;;;;5063333;28;20199;-82
2022/04/22 08:01:01;;;;;;;5.50;5.00;;;16.60;55.40;17.60;94946.00;;;;5063132;28;20201;-83
2022/04/22 08:03:28;;;;;;;5.43;5.03;;;16.70;55.10;17.80;94951.00;;;;5060915;28;20240;-81
2022/04/22 08:05:56;;;;;;;5.43;5.03;;;16.80;54.90;17.90;94958.00;;;;5051889;28;20194;-82
2022/04/22 08:08:24;;;;;;;5.97;5.27;;;17.00;54.70;18.00;94961.00;;;;5046813;28;20228;-84
2022/04/22 08:10:51;;;;;;;5.70;5.20;;;17.00;54.50;18.20;94950.00;;;;5062539;28;20204;-82
2022/04/22 08:13:19;;;;;;;5.40;4.90;;;17.20;54.40;18.40;94952.00;;;;5059962;28;20588;-81
2022/04/22 08:15:46;;;;;;;4.97;4.60;;;17.30;54.80;18.60;94951.00;;;;5063441;28;20231;-82
2022/04/22 08:18:13;;;;;;;5.53;5.13;;;17.50;54.40;18.80;94957.00;;;;5053300;28;20197;-84
2022/04/22 08:20:40;;;;;;;6.00;5.40;;;17.60;54.10;19.00;94951.00;;;;5062058;28;20201;-82
2022/04/22 08:23:07;;;;;;;5.10;4.70;;;17.80;53.90;19.10;94951.00;;;;5059490;28;20220;-84
2022/04/22 08:25:35;;;;;;;5.80;5.30;;;17.90;53.40;19.20;94954.00;;;;5058734;28;20200;-81
2022/04/22 08:28:03;;;;;;;4.90;4.47;;;18.10;53.10;19.30;94952.00;;;;5046851;28;20220;-81
2022/04/22 08:30:33;;;;;;;5.53;5.00;;;18.20;52.70;19.30;94954.00;;;;5049813;28;20193;-84
2022/04/22 08:33:01;;;;;;;5.17;4.67;;;18.30;52.40;19.40;94966.00;;;;5049974;28;20254;-83
2022/04/22 08:35:28;;;;;;;4.43;4.13;;;18.40;52.10;19.50;94956.00;;;;5053606;28;20198;-82
2022/04/22 08:37:55;;;;;;;5.20;4.70;;;18.50;51.90;19.50;94956.00;;;;5054240;28;20579;-82
2022/04/22 08:40:23;;;;;;;4.97;4.57;;;18.50;51.60;19.60;94953.00;;;;5048378;28;20196;-82
2022/04/22 08:42:50;;;;;;;4.77;4.40;;;18.60;51.40;19.70;94963.00;;;;5050043;28;20219;-82
2022/04/22 08:45:18;;;;;;;5.37;4.97;;;18.70;51.20;19.80;94956.00;;;;5045405;28;20196;-82
2022/04/22 08:50:32;;;;;;;5.00;4.60;;;18.90;51.00;20.00;94961.00;;;;5049798;28;20255;-84
2022/04/22 08:53:07;;;;;;;5.03;4.63;;;19.00;50.90;20.10;94962.00;;;;5037799;28;20224;-83
2022/04/22 08:55:34;;;;;;;5.90;5.40;;;19.10;50.40;20.20;94963.00;;;;5055688;28;20193;-83
2022/04/22 08:58:05;;;;;;;4.50;4.13;;;19.20;50.30;20.30;94957.00;;;;5045003;28;20194;-83
2022/04/22 09:00:36;;;;;;;5.80;4.23;;;19.30;50.40;20.60;94962.00;;;;5036274;28;20292;-83
2022/04/22 09:03:05;;;;;;;5.17;4.77;;;19.50;50.70;21.00;94965.00;;;;5040455;28;20686;-83
2022/04/22 09:05:34;;;;;;;5.80;5.13;;;19.70;51.10;21.50;94971.00;;;;5036928;28;20201;-83
2022/04/22 09:08:02;;;;;;;4.73;4.43;;;20.00;50.80;21.90;94969.00;;;;5055557;28;20201;-83
2022/04/22 09:10:30;;;;;;;5.00;4.63;;;20.30;50.50;22.10;94969.00;;;;5056728;28;20195;-83
2022/04/22 09:12:58;;;;;;;4.60;4.30;;;20.60;49.50;22.40;94959.00;;;;5056390;28;20707;-83
2022/04/22 09:15:28;;;;;;;4.43;4.07;;;20.80;48.70;22.60;94960.00;;;;5045776;28;20202;-83
2022/04/22 09:17:57;;;;;;;4.60;4.30;;;21.10;48.90;23.00;94963.00;;;;5042590;28;20788;-84
2022/04/22 09:20:30;;;;;;;4.63;4.27;;;21.40;49.00;23.40;94955.00;;;;5055904;28;20666;-83
2022/04/22 09:22:58;;;;;;;5.30;4.80;;;21.80;48.40;23.60;94959.00;;;;5035681;28;20236;-83
2022/04/22 09:25:26;;;;;;;5.57;5.07;;;22.10;48.30;23.90;94957.00;;;;5038460;28;20209;-83
2022/04/22 09:28:07;;;;;;;5.27;4.77;;;22.40;47.70;24.10;94956.00;;;;5054155;28;20204;-84
2022/04/22 09:30:34;;;;;;;4.50;4.17;;;22.80;47.20;24.30;94963.00;;;;5052531;28;20188;-83
2022/04/22 09:33:01;;;;;;;7.80;4.37;;;23.10;46.80;24.50;94967.00;;;;5047081;28;20300;-83
2022/04/22 09:42:38;;;;;;;4.90;4.40;;;23.40;45.90;24.60;94961.00;;;;5043223;28;20279;-83
2022/04/22 09:43:52;;;;;;;4.27;3.87;;;24.10;44.40;25.00;94964.00;;;;5051229;28;20202;-82
2022/04/22 09:46:27;;;;;;;4.83;4.43;;;24.40;44.50;25.20;94956.00;;;;5049342;28;20200;-83
2022/04/22 09:48:56;;;;;;;4.40;4.10;;;24.70;43.70;25.30;94956.00;;;;5049934;28;20247;-84
2022/04/22 09:51:27;;;;;;;4.77;4.30;;;25.00;43.80;25.50;94953.00;;;;5056345;28;20189;-83
2022/04/22 09:54:05;;;;;;;5.10;4.70;;;25.20;43.20;25.50;94954.00;;;;5054686;28;20196;-83
2022/04/22 09:56:33;;;;;;;4.83;4.43;;;25.30;41.90;25.50;94957.00;;;;5051676;28;20262;-83
2022/04/22 09:59:21;;;;;;;4.60;4.20;;;25.40;41.00;25.40;94954.00;;;;5054997;28;20223;-84
2022/04/22 10:01:50;;;;;;;4.17;3.87;;;25.40;40.80;25.30;94954.00;;;;5055475;28;20239;-84
2022/04/22 10:04:19;;;;;;;4.17;3.87;;;25.30;40.70;25.20;94951.00;;;;5055195;28;20211;-81
2022/04/22 10:06:50;;;;;;;4.07;3.70;;;25.20;40.60;25.20;94948.00;;;;5051716;28;20201;-82
2022/04/22 10:09:18;;;;;;;3.90;3.70;;;25.20;41.40;25.20;94950.00;;;;5055014;28;20215;-82
2022/04/22 10:11:47;;;;;;;3.47;3.27;;;25.20;41.00;25.30;94948.00;;;;5055597;28;20291;-82
2022/04/22 10:14:19;;;;;;;4.23;3.87;;;25.20;41.00;25.30;94946.00;;;;5054912;28;20200;-82
2022/04/22 10:16:49;;;;;;;4.90;3.97;;;25.30;41.00;25.40;94947.00;;;;5051482;28;20213;-82
2022/04/22 10:19:17;;;;;;;3.70;3.47;;;25.30;40.80;25.40;94949.00;;;;5054530;28;20234;-82
2022/04/22 10:21:50;;;;;;;4.80;4.47;;;25.40;40.90;25.40;94938.00;;;;5054464;28;20193;-82
2022/04/22 10:24:20;;;;;;;4.40;4.00;;;25.50;40.30;25.30;94940.00;;;;5054621;28;20197;-83
2022/04/22 10:26:48;;;;;;;3.70;3.50;;;25.50;40.10;25.20;94946.00;;;;5037521;28;20205;-83
2022/04/22 10:29:15;;;;;;;3.50;3.30;;;25.60;40.30;25.30;94955.00;;;;5044580;28;20192;-83
2022/04/22 10:31:43;;;;;;;4.63;4.13;;;25.70;40.50;25.30;94948.00;;;;5054487;28;20201;-83
2022/04/22 10:34:12;;;;;;;4.43;3.80;;;25.80;40.50;25.40;94950.00;;;;5053788;28;20692;-83
2022/04/22 10:36:40;;;;;;;3.93;3.63;;;25.90;40.20;25.50;94946.00;;;;5052064;28;20245;-83
2022/04/22 10:39:09;;;;;;;4.13;3.73;;;26.00;39.90;25.50;94939.00;;;;5053804;28;20303;-83
2022/04/22 10:41:46;;;;;;;4.17;3.90;;;26.10;39.40;25.50;94951.00;;;;5054254;28;20403;-83
2022/04/22 10:47:15;;;;;;;4.33;4.03;;;26.00;39.20;25.50;94945.00;;;;5035892;28;20247;-83
2022/04/22 10:49:44;;;;;;;3.97;3.67;;;25.90;38.80;25.40;94945.00;;;;5035903;28;20236;-83
2022/04/22 10:52:14;;;;;;;4.07;3.77;;;25.70;38.60;25.30;94939.00;;;;5035413;28;20299;-83
2022/04/22 10:55:10;;;;;;;4.30;3.63;;;25.60;38.50;25.20;94941.00;;;;5035338;28;20284;-83
2022/04/22 10:57:42;;;;;;;3.87;3.47;;;25.40;38.50;25.10;94934.00;;;;5032936;28;20224;-83
2022/04/22 11:00:28;;;;;;;4.43;4.03;;;25.10;38.70;25.00;94945.00;;;;5035561;28;20205;-83
2022/04/22 11:03:16;;;;;;;4.27;3.87;;;25.00;38.40;24.80;94942.00;;;;5035020;28;20306;-82
2022/04/22 11:05:52;;;;;;;4.00;3.67;;;24.80;38.50;24.70;94934.00;;;;5037896;28;20201;-82
2022/04/22 11:08:32;;;;;;;4.37;4.07;;;24.60;39.00;24.50;94940.00;;;;5042800;28;20582;-82
2022/04/22 11:11:13;;;;;;;4.70;4.30;;;24.40;39.20;24.40;94932.00;;;;5053037;28;20203;-82
2022/04/22 11:13:44;;;;;;;4.57;4.17;;;24.20;39.50;24.30;94934.00;;;;5058584;28;20322;-82
2022/04/22 11:16:29;;;;;;;3.93;3.63;;;24.00;39.70;24.20;94936.00;;;;5058870;28;20234;-82
2022/04/22 11:19:28;;;;;;;4.47;4.17;;;23.90;39.90;24.00;94948.00;;;;5063407;28;20661;-82
2022/04/22 11:21:58;;;;;;;4.00;3.70;;;23.70;39.80;23.90;94933.00;;;;5049231;28;20221;-82
2022/04/22 11:24:28;;;;;;;4.10;3.80;;;23.60;40.00;23.70;94936.00;;;;5060394;28;20291;-82
2022/04/22 11:27:10;;;;;;;3.97;3.67;;;23.40;40.30;23.60;94936.00;;;;5063290;28;20292;-82
2022/04/22 11:29:38;;;;;;;4.77;4.37;;;23.30;40.50;23.50;94942.00;;;;5061414;28;20207;-82
2022/04/22 11:32:14;;;;;;;4.70;4.33;;;23.20;41.00;23.40;94945.00;;;;5063020;28;20293;-82
2022/04/22 11:35:21;;;;;;;4.40;4.10;;;23.10;40.90;23.30;94946.00;;;;5042656;28;20201;-82
2022/04/22 11:37:58;;;;;;;4.53;4.13;;;22.90;40.70;23.20;94934.00;;;;5062901;28;20220;-82
2022/04/22 11:40:25;;;;;;;5.07;4.63;;;22.80;40.80;23.10;94936.00;;;;5050883;28;20194;-80
2022/04/22 11:42:54;;;;;;;4.73;4.43;;;22.70;41.20;23.00;94940.00;;;;5062130;28;20220;-81
2022/04/22 11:45:22;;;;;;;5.30;4.80;;;22.60;41.70;22.90;94936.00;;;;5066681;28;20226;-81
2022/04/22 11:47:50;;;;;;;4.70;4.30;;;22.50;41.20;22.80;94942.00;;;;5069000;28;20207;-80
2022/04/22 11:50:22;;;;;;;3.93;3.73;;;22.40;41.50;22.70;94941.00;;;;5073516;28;20195;-83
2022/04/22 11:52:56;;;;;;;5.60;4.37;;;22.30;41.80;22.60;94937.00;;;;5071001;28;20219;-82
2022/04/22 11:55:23;;;;;;;4.53;3.77;;;22.20;41.80;22.60;94931.00;;;;5070020;28;20197;-83